createdAt,value
2018-12-23T00:01:07.070Z,101231.33
2018-12-23T00:03:34.583Z,101227.46
2018-12-23T00:06:02.035Z,101223.95
2018-12-23T00:08:29.717Z,101225.25
2018-12-23T00:10:57.213Z,101218.55
2018-12-23T00:13:24.727Z,101219.80
2018-12-23T00:15:52.055Z,101230.88
2018-12-23T00:18:19.645Z,101222.07
2018-12-23T00:20:46.997Z,101230.21
2018-12-23T00:23:14.469Z,101233.44
2018-12-23T00:25:42.071Z,101243.86
2018-12-23T00:28:09.556Z,101237.82
2018-12-23T00:30:37.063Z,101238.86
2018-12-23T00:33:04.487Z,101246.65
2018-12-23T00:35:31.813Z,101247.42
2018-12-23T00:37:59.334Z,101252.52
2018-12-23T00:40:26.898Z,101253.43
2018-12-23T00:42:54.340Z,101256.37
2018-12-23T00:45:21.927Z,101256.94
2018-12-23T00:47:49.673Z,101256.87
2018-12-23T00:50:17.123Z,101253.30
2018-12-23T00:52:44.529Z,101264.83
2018-12-23T00:55:12.060Z,101267.66
2018-12-23T00:57:39.491Z,101278.16
2018-12-23T01:00:08.819Z,101277.05
2018-12-23T01:02:36.447Z,101283.50
2018-12-23T01:05:04.806Z,101284.36
2018-12-23T01:07:32.283Z,101288.30
2018-12-23T01:09:59.871Z,101292.99
2018-12-23T01:12:27.303Z,101299.83
2018-12-23T01:14:55.017Z,101294.80
2018-12-23T01:17:22.603Z,101295.31
2018-12-23T01:19:50.130Z,101301.81
2018-12-23T01:22:17.719Z,101296.05
2018-12-23T01:24:45.223Z,101305.42
2018-12-23T01:27:12.659Z,101300.02
2018-12-23T01:29:40.171Z,101304.02
2018-12-23T01:32:07.711Z,101303.42
2018-12-23T01:34:37.112Z,101296.70
2018-12-23T01:37:04.535Z,101300.45
2018-12-23T01:39:32.056Z,101299.14
2018-12-23T01:41:59.500Z,101297.67
2018-12-23T01:44:26.967Z,101297.10
2018-12-23T01:46:54.436Z,101300.21
2018-12-23T01:49:21.951Z,101299.95
2018-12-23T01:51:49.607Z,101306.38
2018-12-23T01:54:17.158Z,101324.69
2018-12-23T01:56:44.621Z,101316.43
2018-12-23T01:59:12.089Z,101319.88
2018-12-23T02:01:39.577Z,101319.73
2018-12-23T02:04:07.115Z,101323.77
2018-12-23T02:06:34.604Z,101319.86
2018-12-23T02:09:03.411Z,101311.60
2018-12-23T02:11:30.795Z,101315.13
2018-12-23T02:13:58.282Z,101317.57
2018-12-23T02:16:25.672Z,101319.23
2018-12-23T02:18:53.153Z,101310.61
2018-12-23T02:21:20.829Z,101305.05
2018-12-23T02:23:48.332Z,101307.02
2018-12-23T02:26:15.761Z,101301.56
2018-12-23T02:28:43.215Z,101308.55
2018-12-23T02:31:10.711Z,101306.17
2018-12-23T02:33:38.174Z,101300.41
2018-12-23T02:36:05.503Z,101292.39
2018-12-23T02:38:32.979Z,101292.84
2018-12-23T02:41:00.424Z,101295.89
2018-12-23T02:43:27.908Z,101302.06
2018-12-23T02:45:55.424Z,101297.98
2018-12-23T02:48:26.140Z,101302.83
2018-12-23T02:50:53.500Z,101306.44
2018-12-23T02:53:20.830Z,101315.55
2018-12-23T02:55:48.503Z,101315.66
2018-12-23T02:58:15.830Z,101315.66
2018-12-23T03:00:43.343Z,101318.70
2018-12-23T03:03:10.928Z,101315.66
2018-12-23T03:05:38.375Z,101315.55
2018-12-23T03:08:05.857Z,101323.05
2018-12-23T03:10:33.462Z,101324.55
2018-12-23T03:13:01.032Z,101319.86
2018-12-23T03:15:28.420Z,101317.39
2018-12-23T03:17:55.885Z,101316.59
2018-12-23T03:20:23.354Z,101318.77
2018-12-23T03:22:50.996Z,101320.34
2018-12-23T03:25:18.664Z,101311.73
2018-12-23T03:27:46.335Z,101314.84
2018-12-23T03:30:13.998Z,101325.37
2018-12-23T03:32:41.615Z,101322.78
2018-12-23T03:35:09.123Z,101326.64
2018-12-23T03:37:36.731Z,101319.56
2018-12-23T03:40:04.534Z,101318.84
2018-12-23T03:42:32.035Z,101312.55
2018-12-23T03:44:59.807Z,101310.30
2018-12-23T03:47:27.243Z,101313.74
2018-12-23T03:49:54.889Z,101313.70
2018-12-23T03:52:22.334Z,101312.55
2018-12-23T03:54:49.975Z,101301.44
2018-12-23T03:57:17.747Z,101298.22
2018-12-23T03:59:45.271Z,101303.43
2018-12-23T04:02:12.713Z,101302.42
2018-12-23T04:04:40.271Z,101297.46
2018-12-23T04:07:07.713Z,101301.76
2018-12-23T04:09:35.302Z,101291.99
2018-12-23T04:12:03.077Z,101294.81
2018-12-23T04:14:33.763Z,101295.31
2018-12-23T04:17:01.219Z,101296.50
2018-12-23T04:19:28.689Z,101297.95
2018-12-23T04:21:56.345Z,101294.15
2018-12-23T04:24:23.840Z,101293.12
2018-12-23T04:26:51.157Z,101292.30
2018-12-23T04:29:18.721Z,101291.59
2018-12-23T04:31:46.176Z,101293.89
2018-12-23T04:34:13.635Z,101294.84
2018-12-23T04:36:41.107Z,101283.86
2018-12-23T04:39:08.752Z,101291.55
2018-12-23T04:41:36.190Z,101284.16
2018-12-23T04:44:03.695Z,101281.02
2018-12-23T04:46:31.042Z,101290.84
2018-12-23T04:48:58.528Z,101291.63
2018-12-23T04:51:26.044Z,101300.98
2018-12-23T04:53:53.642Z,101306.16
2018-12-23T04:56:21.147Z,101309.92
2018-12-23T04:58:49.008Z,101299.01
2018-12-23T05:01:16.544Z,101299.98
2018-12-23T05:03:43.928Z,101300.06
2018-12-23T05:06:11.425Z,101303.36
2018-12-23T05:08:38.868Z,101285.36
2018-12-23T05:11:06.323Z,101295.48
2018-12-23T05:13:34.435Z,101290.00
2018-12-23T05:16:02.173Z,101292.95
2018-12-23T05:18:29.697Z,101297.97
2018-12-23T05:20:57.050Z,101297.59
2018-12-23T05:23:24.421Z,101294.04
2018-12-23T05:25:51.918Z,101292.60
2018-12-23T05:28:20.876Z,101299.33
2018-12-23T05:30:48.565Z,101293.25
2018-12-23T05:33:16.023Z,101295.91
2018-12-23T05:35:43.495Z,101299.41
2018-12-23T05:38:10.928Z,101299.66
2018-12-23T05:40:38.392Z,101295.86
2018-12-23T05:43:06.007Z,101290.66
2018-12-23T05:45:33.457Z,101299.66
2018-12-23T05:48:00.960Z,101301.45
2018-12-23T05:50:28.391Z,101301.55
2018-12-23T05:52:55.855Z,101302.91
2018-12-23T05:55:23.243Z,101303.38
2018-12-23T05:57:51.381Z,101306.73
2018-12-23T06:00:18.807Z,101301.26
2018-12-23T06:02:46.272Z,101300.12
2018-12-23T06:05:13.734Z,101307.13
2018-12-23T06:07:41.185Z,101300.58
2018-12-23T06:10:11.483Z,101301.13
2018-12-23T06:12:38.964Z,101309.92
2018-12-23T06:15:06.520Z,101312.30
2018-12-23T06:17:33.985Z,101316.84
2018-12-23T06:20:01.476Z,101321.61
2018-12-23T06:22:28.948Z,101325.16
2018-12-23T06:24:56.420Z,101321.61
2018-12-23T06:27:24.001Z,101320.67
2018-12-23T06:29:51.439Z,101313.88
2018-12-23T06:32:18.789Z,101315.66
2018-12-23T06:34:46.321Z,101310.49
2018-12-23T06:37:13.664Z,101320.36
2018-12-23T06:39:41.118Z,101323.65
2018-12-23T06:42:08.621Z,101327.01
2018-12-23T06:44:36.057Z,101318.93
2018-12-23T06:47:03.641Z,101315.05
2018-12-23T06:49:31.249Z,101311.61
2018-12-23T06:51:58.747Z,101305.80
2018-12-23T06:54:26.286Z,101307.04
2018-12-23T06:56:53.815Z,101302.80
2018-12-23T06:59:21.297Z,101307.38
2018-12-23T07:01:48.687Z,101318.39
2018-12-23T07:04:16.174Z,101321.34
2018-12-23T07:06:43.607Z,101319.05
2018-12-23T07:09:11.090Z,101324.63
2018-12-23T07:11:45.408Z,101321.98
2018-12-23T07:14:13.023Z,101321.86
2018-12-23T07:16:40.620Z,101319.05
2018-12-23T07:19:07.952Z,101315.88
2018-12-23T07:21:35.433Z,101329.35
2018-12-23T07:24:02.969Z,101335.69
2018-12-23T07:26:30.451Z,101328.37
2018-12-23T07:28:57.938Z,101332.20
2018-12-23T07:31:25.404Z,101331.19
2018-12-23T07:33:53.016Z,101329.25
2018-12-23T07:36:20.572Z,101325.54
2018-12-23T07:38:48.052Z,101332.41
2018-12-23T07:41:15.548Z,101333.13
2018-12-23T07:43:43.236Z,101324.66
2018-12-23T07:46:10.736Z,101330.81
2018-12-23T07:48:38.268Z,101336.66
2018-12-23T07:51:05.817Z,101328.90
2018-12-23T07:53:33.306Z,101332.05
2018-12-23T07:56:00.824Z,101325.59
2018-12-23T07:58:28.484Z,101321.68
2018-12-23T08:00:55.960Z,101325.30
2018-12-23T08:03:23.572Z,101319.23
2018-12-23T08:05:51.043Z,101324.70
2018-12-23T08:08:18.547Z,101321.53
2018-12-23T08:10:46.129Z,101324.55
2018-12-23T08:13:13.670Z,101327.55
2018-12-23T08:15:41.229Z,101328.70
2018-12-23T08:18:08.876Z,101325.31
2018-12-23T08:20:36.253Z,101325.24
2018-12-23T08:23:03.985Z,101327.69
2018-12-23T08:25:35.621Z,101321.89
2018-12-23T08:28:01.346Z,101321.69
2018-12-23T08:30:29.016Z,101320.00
2018-12-23T08:32:56.745Z,101324.04
2018-12-23T08:35:24.261Z,101321.53
2018-12-23T08:37:51.806Z,101319.44
2018-12-23T08:40:19.295Z,101320.17
2018-12-23T08:42:46.674Z,101316.14
2018-12-23T08:45:14.186Z,101318.31
2018-12-23T08:47:41.666Z,101312.18
2018-12-23T08:50:09.104Z,101314.05
2018-12-23T08:52:36.572Z,101308.14
2018-12-23T08:55:04.199Z,101308.88
2018-12-23T08:57:31.676Z,101306.98
2018-12-23T08:59:59.276Z,101305.64
2018-12-23T09:03:18.942Z,101308.75
2018-12-23T09:06:11.511Z,101308.37
2018-12-23T09:08:58.444Z,101309.42
2018-12-23T09:11:26.099Z,101304.73
2018-12-23T09:14:13.031Z,101304.17
2018-12-23T09:16:40.662Z,101302.94
2018-12-23T09:19:19.873Z,101291.58
2018-12-23T09:21:47.494Z,101289.84
2018-12-23T09:24:15.030Z,101288.75
2018-12-23T09:26:42.834Z,101283.15
2018-12-23T09:29:10.948Z,101284.71
2018-12-23T09:31:38.600Z,101281.45
2018-12-23T09:34:25.610Z,101287.92
2018-12-23T09:36:53.226Z,101283.55
2018-12-23T09:42:37.248Z,101290.06
2018-12-23T09:45:36.817Z,101283.02
2018-12-23T09:48:04.462Z,101278.78
2018-12-23T09:53:32.034Z,101266.70
2018-12-23T09:55:59.995Z,101263.23
2018-12-23T09:58:27.657Z,101262.84
2018-12-23T10:00:55.259Z,101263.39
2018-12-23T10:03:22.918Z,101265.17
2018-12-23T10:05:50.450Z,101260.89
2018-12-23T10:08:18.132Z,101253.95
2018-12-23T10:11:05.391Z,101243.96
2018-12-23T10:13:33.083Z,101251.84
2018-12-23T10:16:00.702Z,101230.03
2018-12-23T10:18:48.131Z,101227.92
2018-12-23T10:24:24.290Z,101224.89
2018-12-23T10:27:11.846Z,101211.38
2018-12-23T10:33:00.162Z,101209.41
2018-12-23T10:35:27.834Z,101204.13
2018-12-23T10:37:55.499Z,101201.23
2018-12-23T10:40:23.804Z,101200.38
2018-12-23T10:42:51.446Z,101191.89
2018-12-23T10:45:19.020Z,101181.53
2018-12-23T10:47:46.584Z,101182.23
2018-12-23T10:50:14.576Z,101179.49
2018-12-23T10:52:42.115Z,101175.55
2018-12-23T10:55:09.826Z,101164.65
2018-12-23T10:57:37.489Z,101163.23
2018-12-23T11:00:46.851Z,101159.13
2018-12-23T11:03:14.371Z,101155.42
2018-12-23T11:06:01.305Z,101139.98
2018-12-23T11:08:28.853Z,101147.58
2018-12-23T11:10:56.525Z,101136.55
2018-12-23T11:13:24.218Z,101126.59
2018-12-23T11:15:51.918Z,101127.92
2018-12-23T11:18:38.918Z,101112.47
2018-12-23T11:21:06.570Z,101111.15
2018-12-23T11:23:34.213Z,101102.61
2018-12-23T11:26:01.799Z,101097.33
2018-12-23T11:28:29.446Z,101091.39
2018-12-23T11:30:57.113Z,101082.34
2018-12-23T11:33:24.776Z,101080.77
2018-12-23T11:35:52.366Z,101075.67
2018-12-23T11:38:19.992Z,101080.06
2018-12-23T11:41:07.016Z,101066.53
2018-12-23T11:43:34.643Z,101064.34
2018-12-23T11:46:02.309Z,101065.25
2018-12-23T11:48:29.989Z,101058.19
2018-12-23T11:50:57.657Z,101052.73
2018-12-23T11:53:25.312Z,101054.86
2018-12-23T11:55:53.139Z,101054.30
2018-12-23T12:01:19.658Z,101038.28
2018-12-23T12:04:06.649Z,101037.02
2018-12-23T12:06:34.355Z,101033.55
2018-12-23T12:11:58.185Z,101025.14
2018-12-23T12:17:05.838Z,101022.30
2018-12-23T12:25:34.919Z,101005.48
2018-12-23T12:28:02.596Z,100996.27
2018-12-23T12:30:49.638Z,100990.39
2018-12-23T12:33:17.341Z,100987.04
2018-12-23T12:36:04.242Z,100979.19
2018-12-23T12:38:31.901Z,100978.49
2018-12-23T12:40:59.542Z,100979.80
2018-12-23T12:43:27.645Z,100966.44
2018-12-23T12:46:14.632Z,100962.23
2018-12-23T12:48:42.320Z,100963.05
2018-12-23T12:51:09.992Z,100960.16
2018-12-23T12:53:37.682Z,100955.73
2018-12-23T12:56:05.699Z,100954.16
2018-12-23T12:58:33.363Z,100954.77
2018-12-23T13:01:01.017Z,100951.61
2018-12-23T13:03:28.651Z,100948.98
2018-12-23T13:06:36.766Z,100940.60
2018-12-23T13:17:28.250Z,100914.06
2018-12-23T13:20:15.243Z,100909.94
2018-12-23T13:25:36.393Z,100900.91
2018-12-23T13:28:04.101Z,100897.55
2018-12-23T13:30:31.782Z,100901.13
2018-12-23T13:32:59.439Z,100887.33
2018-12-23T13:35:27.118Z,100875.06
2018-12-23T13:37:54.807Z,100877.83
2018-12-23T13:44:46.664Z,100866.53
2018-12-23T13:47:41.392Z,100855.34
2018-12-23T13:50:47.664Z,100850.41
2018-12-23T13:53:53.986Z,100841.91
2018-12-23T13:57:14.619Z,100830.67
2018-12-23T14:00:21.242Z,100824.97
2018-12-23T14:03:35.743Z,100824.08
2018-12-23T14:06:31.324Z,100822.03
2018-12-23T14:09:37.958Z,100816.09
2018-12-23T14:12:05.666Z,100807.97
2018-12-23T14:14:33.289Z,100799.39
2018-12-23T14:17:01.302Z,100800.68
2018-12-23T14:19:28.956Z,100789.09
2018-12-23T14:21:56.525Z,100778.05
2018-12-23T14:24:24.262Z,100776.20
2018-12-23T14:26:51.838Z,100769.70
2018-12-23T14:30:00.209Z,100758.32
2018-12-23T14:32:27.906Z,100743.84
2018-12-23T14:34:55.916Z,100734.24
2018-12-23T14:37:42.884Z,100744.17
2018-12-23T14:40:10.521Z,100738.30
2018-12-23T14:42:38.483Z,100737.31
2018-12-23T14:45:06.129Z,100733.54
2018-12-23T14:47:53.038Z,100725.62
2018-12-23T14:50:21.042Z,100717.98
2018-12-23T14:52:48.567Z,100721.44
2018-12-23T14:55:16.625Z,100716.87
2018-12-23T15:00:43.600Z,100703.72
2018-12-23T15:03:11.181Z,100697.01
2018-12-23T15:05:39.095Z,100697.91
2018-12-23T15:08:07.231Z,100690.41
2018-12-23T15:10:36.645Z,100696.73
2018-12-23T15:13:04.389Z,100701.10
2018-12-23T15:18:13.880Z,100686.02
2018-12-23T15:20:52.974Z,100684.23
2018-12-23T15:23:20.724Z,100673.95
2018-12-23T15:25:48.355Z,100673.88
2018-12-23T15:31:15.630Z,100668.50
2018-12-23T15:34:02.774Z,100660.31
2018-12-23T15:39:23.731Z,100650.00
2018-12-23T15:41:51.419Z,100638.89
2018-12-23T15:44:19.087Z,100616.16
2018-12-23T15:46:46.724Z,100627.72
2018-12-23T15:49:14.407Z,100629.91
2018-12-23T15:51:42.030Z,100632.45
2018-12-23T15:54:09.680Z,100607.38
2018-12-23T15:56:56.833Z,100598.61
2018-12-23T15:59:24.909Z,100599.75
2018-12-23T16:01:53.506Z,100596.17
2018-12-23T16:04:21.437Z,100596.70
2018-12-23T16:06:49.073Z,100588.69
2018-12-23T16:09:16.744Z,100584.25
2018-12-23T16:11:57.330Z,100576.27
2018-12-23T16:14:25.069Z,100571.91
2018-12-23T16:16:52.710Z,100570.59
2018-12-23T16:19:20.410Z,100572.27
2018-12-23T16:21:47.940Z,100566.52
2018-12-23T16:24:35.111Z,100556.86
2018-12-23T16:27:02.652Z,100546.22
2018-12-23T16:29:49.663Z,100534.23
2018-12-23T16:32:17.319Z,100522.64
2018-12-23T16:34:45.035Z,100522.38
2018-12-23T16:37:32.358Z,100519.16
2018-12-23T16:40:00.369Z,100525.27
2018-12-23T16:42:27.923Z,100520.17
2018-12-23T16:44:55.612Z,100517.41
2018-12-23T16:47:23.274Z,100513.27
2018-12-23T16:49:50.951Z,100510.41
2018-12-23T16:52:18.648Z,100501.20
2018-12-23T16:54:46.327Z,100491.16
2018-12-23T16:57:14.014Z,100486.16
2018-12-23T17:02:43.019Z,100485.28
2018-12-23T17:05:10.703Z,100478.34
2018-12-23T17:07:57.747Z,100479.30
2018-12-23T17:10:25.400Z,100479.66
2018-12-23T17:12:53.054Z,100476.22
2018-12-23T17:15:20.978Z,100473.15
2018-12-23T17:17:48.975Z,100469.33
2018-12-23T17:20:17.142Z,100465.80
2018-12-23T17:22:45.193Z,100467.59
2018-12-23T17:25:12.826Z,100464.48
2018-12-23T17:27:40.515Z,100466.36
2018-12-23T17:33:10.181Z,100449.52
2018-12-23T17:35:38.185Z,100446.52
2018-12-23T17:38:06.190Z,100440.20
2018-12-23T17:40:34.220Z,100435.31
2018-12-23T17:43:01.889Z,100431.83
2018-12-23T17:45:29.576Z,100432.80
2018-12-23T17:47:57.656Z,100429.03
2018-12-23T17:50:25.286Z,100424.27
2018-12-23T17:53:04.382Z,100440.64
2018-12-23T17:55:32.015Z,100443.38
2018-12-23T17:57:59.689Z,100442.52
2018-12-23T18:00:27.266Z,100437.86
2018-12-23T18:02:54.951Z,100427.81
2018-12-23T18:05:22.608Z,100418.40
2018-12-23T18:07:50.292Z,100418.30
2018-12-23T18:10:25.006Z,100415.31
2018-12-23T18:12:57.195Z,100402.38
2018-12-23T18:15:25.168Z,100403.48
2018-12-23T18:18:00.531Z,100405.27
2018-12-23T18:20:28.179Z,100405.55
2018-12-23T18:22:56.179Z,100393.83
2018-12-23T18:25:43.239Z,100389.28
2018-12-23T18:28:30.201Z,100390.13
2018-12-23T18:30:57.901Z,100386.16
2018-12-23T18:33:25.535Z,100373.96
2018-12-23T18:36:05.189Z,100365.97
2018-12-23T18:38:52.195Z,100357.02
2018-12-23T18:41:19.889Z,100370.41
2018-12-23T18:43:47.579Z,100377.59
2018-12-23T18:46:15.266Z,100373.64
2018-12-23T18:48:43.004Z,100375.56
2018-12-23T18:51:10.709Z,100368.63
2018-12-23T18:57:00.590Z,100362.77
2018-12-23T19:05:48.601Z,100344.96
2018-12-23T19:08:49.391Z,100340.30
2018-12-23T19:11:55.734Z,100335.86
2018-12-23T19:15:02.093Z,100328.57
2018-12-23T19:18:08.515Z,100325.72
2018-12-23T19:21:15.099Z,100327.73
2018-12-23T19:27:26.027Z,100326.89
2018-12-23T19:30:32.717Z,100325.70
2018-12-23T19:33:39.132Z,100314.13
2018-12-23T19:36:45.522Z,100310.27
2018-12-23T19:39:52.224Z,100307.17
2018-12-23T19:43:08.859Z,100299.16
2018-12-23T19:46:15.238Z,100307.53
2018-12-23T19:49:21.594Z,100299.14
2018-12-23T19:52:28.164Z,100307.77
2018-12-23T19:55:34.490Z,100301.06
2018-12-23T19:58:40.920Z,100295.44
2018-12-23T20:01:47.283Z,100286.00
2018-12-23T20:08:22.674Z,100270.46
2018-12-23T20:11:29.047Z,100266.27
2018-12-23T20:14:35.457Z,100254.41
2018-12-23T20:20:43.971Z,100245.77
2018-12-23T20:23:50.578Z,100234.30
2018-12-23T20:26:42.641Z,100232.77
2018-12-23T20:29:48.945Z,100230.34
2018-12-23T20:36:00.724Z,100239.34
2018-12-23T20:38:40.900Z,100228.55
2018-12-23T20:41:47.524Z,100214.78
2018-12-23T20:44:54.111Z,100210.37
2018-12-23T20:48:00.475Z,100206.05
2018-12-23T20:51:06.833Z,100198.30
2018-12-23T20:54:13.203Z,100189.14
2018-12-23T20:57:19.590Z,100185.66
2018-12-23T21:00:26.380Z,100175.32
2018-12-23T21:03:32.694Z,100193.47
2018-12-23T21:06:39.003Z,100195.57
2018-12-23T21:13:28.361Z,100184.66
2018-12-23T21:16:34.609Z,100177.69
2018-12-23T21:19:41.160Z,100188.45
2018-12-23T21:22:47.539Z,100186.13
2018-12-23T21:25:53.922Z,100191.12
2018-12-23T21:29:00.432Z,100186.83
2018-12-23T21:32:06.867Z,100188.86
2018-12-23T21:38:26.742Z,100190.88
2018-12-23T21:41:33.169Z,100196.14
2018-12-23T21:44:39.629Z,100190.89
2018-12-23T21:47:45.955Z,100201.20
2018-12-23T21:54:18.386Z,100189.06
2018-12-23T21:57:24.763Z,100180.19
2018-12-23T22:00:31.110Z,100168.94
2018-12-23T22:06:33.361Z,100169.39
2018-12-23T22:09:40.099Z,100170.09
2018-12-23T22:12:46.471Z,100164.57
2018-12-23T22:15:33.518Z,100165.44
2018-12-23T22:18:01.226Z,100148.42
2018-12-23T22:24:00.621Z,100144.50
2018-12-23T22:26:28.299Z,100134.46
2018-12-23T22:28:55.924Z,100126.33
2018-12-23T22:31:23.645Z,100130.44
2018-12-23T22:33:51.291Z,100133.95
2018-12-23T22:36:18.959Z,100124.27
2018-12-23T22:38:46.635Z,100128.58
2018-12-23T22:41:29.493Z,100132.73
2018-12-23T22:43:57.492Z,100130.60
2018-12-23T22:46:25.135Z,100128.99
2018-12-23T22:48:52.950Z,100128.10
2018-12-23T22:51:20.630Z,100122.27
2018-12-23T22:53:48.270Z,100118.22
2018-12-23T22:56:15.954Z,100118.27
2018-12-23T22:58:43.643Z,100115.92
2018-12-23T23:01:32.731Z,100115.50
2018-12-23T23:04:00.969Z,100112.73
2018-12-23T23:06:28.711Z,100107.27
2018-12-23T23:08:56.392Z,100103.52
2018-12-23T23:11:24.147Z,100097.04
2018-12-23T23:13:51.733Z,100086.98
2018-12-23T23:16:19.405Z,100090.43
2018-12-23T23:18:47.209Z,100095.92
2018-12-23T23:21:14.883Z,100109.55
2018-12-23T23:23:42.861Z,100107.94
2018-12-23T23:26:10.878Z,100108.97
2018-12-23T23:28:39.646Z,100123.94
2018-12-23T23:31:07.363Z,100144.12
2018-12-23T23:33:35.146Z,100153.80
2018-12-23T23:36:02.812Z,100158.66
2018-12-23T23:38:30.870Z,100176.73
2018-12-23T23:40:58.924Z,100195.17
2018-12-23T23:43:26.588Z,100213.72
2018-12-23T23:45:54.262Z,100237.76
2018-12-23T23:48:21.992Z,100229.59
2018-12-23T23:50:49.669Z,100235.19
2018-12-23T23:53:17.661Z,100270.55
2018-12-23T23:55:45.487Z,100307.14
2018-12-23T23:58:13.119Z,100307.70
